createdAt,value
2023-01-13T00:01:09.775Z,71.68
2023-01-13T00:03:36.874Z,70.66
2023-01-13T00:06:04.776Z,70.95
2023-01-13T00:08:31.859Z,70.40
2023-01-13T00:10:58.701Z,69.73
2023-01-13T00:13:28.294Z,70.01
2023-01-13T00:15:59.679Z,69.18
2023-01-13T00:18:26.841Z,69.65
2023-01-13T00:21:05.056Z,69.03
2023-01-13T00:23:33.484Z,69.05
2023-01-13T00:26:02.992Z,67.89
2023-01-13T00:28:29.800Z,68.23
2023-01-13T00:30:58.597Z,68.03
2023-01-13T00:33:25.779Z,69.37
2023-01-13T00:35:59.907Z,69.69
2023-01-13T00:38:26.645Z,69.60
2023-01-13T00:41:05.952Z,68.73
2023-01-13T00:43:34.337Z,68.88
2023-01-13T00:46:01.890Z,68.63
2023-01-13T00:48:29.070Z,69.18
2023-01-13T00:51:00.363Z,69.58
2023-01-13T00:53:28.086Z,71.22
2023-01-13T00:56:14.291Z,71.24
2023-01-13T00:58:41.733Z,71.35
2023-01-13T01:01:11.531Z,70.42
2023-01-13T01:03:38.630Z,71.18
2023-01-13T01:06:12.201Z,70.71
2023-01-13T01:08:39.241Z,70.22
2023-01-13T01:11:29.851Z,68.61
2023-01-13T01:13:58.516Z,69.04
2023-01-13T01:16:27.405Z,68.73
2023-01-13T01:18:55.568Z,68.24
2023-01-13T01:21:24.748Z,68.73
2023-01-13T01:23:51.724Z,69.08
2023-01-13T01:26:21.055Z,69.37
2023-01-13T01:28:48.425Z,68.55
2023-01-13T01:31:18.219Z,69.42
2023-01-13T01:33:47.491Z,70.19
2023-01-13T01:36:15.965Z,71.32
2023-01-13T01:38:43.355Z,70.44
2023-01-13T01:41:14.915Z,72.01
2023-01-13T01:44:07.298Z,70.72
2023-01-13T01:46:44.825Z,69.30
2023-01-13T01:49:15.499Z,69.26
2023-01-13T01:51:49.815Z,67.97
2023-01-13T01:54:21.295Z,68.10
2023-01-13T01:56:48.474Z,68.43
2023-01-13T01:59:15.978Z,69.81
2023-01-13T02:01:43.849Z,69.51
2023-01-13T02:04:33.871Z,69.32
2023-01-13T02:07:02.919Z,68.26
2023-01-13T02:09:30.439Z,69.10
2023-01-13T02:12:15.675Z,68.24
2023-01-13T02:14:42.960Z,69.83
2023-01-13T02:17:21.916Z,70.64
2023-01-13T02:20:22.794Z,69.63
2023-01-13T02:23:08.105Z,69.54
2023-01-13T02:26:11.586Z,69.10
2023-01-13T02:29:15.932Z,69.14
2023-01-13T02:31:47.117Z,70.56
2023-01-13T02:34:31.022Z,70.68
2023-01-13T02:37:22.510Z,70.08
2023-01-13T02:40:02.778Z,70.42
2023-01-13T02:43:02.234Z,69.64
2023-01-13T02:45:33.909Z,68.79
2023-01-13T02:48:03.011Z,68.22
2023-01-13T02:50:35.935Z,68.53
2023-01-13T02:53:08.766Z,68.44
2023-01-13T02:55:46.470Z,67.48
2023-01-13T02:58:17.359Z,68.15
2023-01-13T03:00:45.552Z,68.36
2023-01-13T03:03:12.159Z,69.04
2023-01-13T03:05:40.883Z,68.56
2023-01-13T03:08:15.623Z,69.79
2023-01-13T03:10:51.140Z,70.40
2023-01-13T03:13:29.908Z,70.78
2023-01-13T03:16:11.606Z,70.60
2023-01-13T03:19:03.098Z,70.76
2023-01-13T03:21:44.259Z,69.77
2023-01-13T03:24:20.591Z,69.21
2023-01-13T03:27:17.211Z,68.68
2023-01-13T03:29:52.793Z,69.42
2023-01-13T03:32:42.458Z,70.48
2023-01-13T03:35:16.045Z,69.12
2023-01-13T03:37:47.879Z,69.23
2023-01-13T03:40:22.073Z,69.28
2023-01-13T03:43:14.236Z,69.13
2023-01-13T03:45:43.226Z,69.68
2023-01-13T03:48:16.500Z,69.59
2023-01-13T03:50:56.389Z,70.46
2023-01-13T03:53:33.403Z,69.37
2023-01-13T03:56:08.496Z,69.31
2023-01-13T03:58:48.169Z,68.55
2023-01-13T04:01:35.316Z,70.66
2023-01-13T04:04:08.509Z,70.46
2023-01-13T04:06:50.584Z,70.00
2023-01-13T04:09:33.453Z,68.80
2023-01-13T04:12:13.334Z,68.34
2023-01-13T04:14:40.876Z,68.09
2023-01-13T04:17:07.471Z,67.87
2023-01-13T04:19:34.083Z,68.25
2023-01-13T04:22:00.730Z,68.55
2023-01-13T04:24:27.385Z,68.71
2023-01-13T04:26:54.034Z,68.38
2023-01-13T04:29:20.581Z,68.78
2023-01-13T04:31:47.175Z,69.83
2023-01-13T04:34:13.911Z,69.23
2023-01-13T04:36:40.778Z,70.31
2023-01-13T04:39:07.425Z,70.65
2023-01-13T04:41:53.948Z,70.34
2023-01-13T04:44:20.570Z,69.11
2023-01-13T04:46:47.404Z,68.63
2023-01-13T04:49:14.189Z,68.15
2023-01-13T04:51:40.805Z,67.48
2023-01-13T04:54:07.512Z,68.12
2023-01-13T04:56:34.164Z,68.32
2023-01-13T04:59:00.780Z,68.19
2023-01-13T05:01:27.666Z,68.26
2023-01-13T05:03:54.389Z,67.42
2023-01-13T05:06:21.071Z,68.14
2023-01-13T05:08:47.697Z,68.03
2023-01-13T05:11:33.179Z,67.29
2023-01-13T05:14:18.416Z,67.64
2023-01-13T05:17:02.260Z,67.93
2023-01-13T05:19:35.658Z,68.37
2023-01-13T05:22:21.583Z,69.23
2023-01-13T05:25:06.470Z,70.53
2023-01-13T05:27:33.856Z,71.19
2023-01-13T05:30:00.744Z,72.33
2023-01-13T05:32:31.140Z,72.26
2023-01-13T05:34:57.749Z,71.01
2023-01-13T05:37:24.788Z,70.85
2023-01-13T05:40:14.741Z,70.96
2023-01-13T05:43:00.045Z,71.92
2023-01-13T05:45:26.982Z,70.50
2023-01-13T05:47:53.579Z,70.23
2023-01-13T05:50:21.434Z,69.65
2023-01-13T05:52:48.133Z,69.84
2023-01-13T05:55:14.958Z,70.90
2023-01-13T05:57:41.889Z,70.61
2023-01-13T06:00:09.127Z,70.92
2023-01-13T06:02:35.750Z,72.80
2023-01-13T06:05:11.345Z,74.98
2023-01-13T06:07:38.000Z,72.96
2023-01-13T06:10:04.933Z,71.30
2023-01-13T06:12:31.663Z,72.84
2023-01-13T06:14:58.264Z,71.92
2023-01-13T06:17:24.881Z,71.13
2023-01-13T06:19:51.487Z,70.40
2023-01-13T06:22:33.025Z,71.09
2023-01-13T06:24:59.761Z,71.79
2023-01-13T06:27:26.436Z,70.92
2023-01-13T06:29:53.033Z,71.79
2023-01-13T06:32:23.396Z,71.03
2023-01-13T06:34:55.573Z,71.79
2023-01-13T06:37:26.198Z,71.35
2023-01-13T06:39:58.157Z,71.40
2023-01-13T06:42:46.444Z,71.36
2023-01-13T06:45:13.114Z,72.38
2023-01-13T06:47:39.904Z,71.93
2023-01-13T06:50:06.838Z,70.58
2023-01-13T06:52:33.416Z,71.14
2023-01-13T06:55:00.036Z,69.91
2023-01-13T06:57:26.617Z,70.03
2023-01-13T06:59:53.441Z,70.04
2023-01-13T07:02:20.417Z,71.38
2023-01-13T07:04:47.168Z,71.84
2023-01-13T07:07:14.181Z,70.38
2023-01-13T07:09:40.781Z,70.72
2023-01-13T07:12:07.740Z,70.47
2023-01-13T07:14:54.479Z,70.83
2023-01-13T07:17:25.447Z,71.58
2023-01-13T07:19:53.195Z,72.08
2023-01-13T07:22:19.832Z,71.37
2023-01-13T07:24:46.566Z,71.18
2023-01-13T07:27:13.312Z,69.89
2023-01-13T07:29:39.866Z,70.02
2023-01-13T07:32:07.993Z,70.87
2023-01-13T07:34:34.727Z,70.51
2023-01-13T07:37:01.816Z,70.58
2023-01-13T07:39:28.376Z,68.96
2023-01-13T07:42:13.958Z,69.14
2023-01-13T07:44:40.602Z,69.71
2023-01-13T07:47:08.579Z,69.39
2023-01-13T07:49:35.135Z,69.96
2023-01-13T07:52:01.916Z,69.47
2023-01-13T07:54:40.313Z,69.09
2023-01-13T07:57:08.064Z,67.99
2023-01-13T07:59:34.704Z,67.30
2023-01-13T08:02:01.466Z,66.84
2023-01-13T08:04:28.203Z,67.74
2023-01-13T08:06:54.787Z,68.95
2023-01-13T08:09:21.375Z,68.66
2023-01-13T08:12:13.708Z,67.71
2023-01-13T08:14:40.346Z,68.24
2023-01-13T08:17:10.622Z,66.86
2023-01-13T08:19:37.239Z,65.99
2023-01-13T08:22:03.858Z,66.14
2023-01-13T08:24:30.547Z,67.75
2023-01-13T08:27:03.145Z,66.92
2023-01-13T08:29:54.146Z,66.89
2023-01-13T08:32:21.032Z,66.32
2023-01-13T08:37:30.938Z,65.37
2023-01-13T08:40:16.939Z,65.46
2023-01-13T08:43:19.316Z,65.31
2023-01-13T08:46:09.264Z,65.57
2023-01-13T08:51:51.117Z,66.18
2023-01-13T08:54:19.005Z,66.05
2023-01-13T08:56:47.158Z,65.79
2023-01-13T08:59:16.102Z,65.79
2023-01-13T09:01:43.266Z,67.23
2023-01-13T09:04:20.490Z,67.65
2023-01-13T09:06:47.907Z,68.20
2023-01-13T09:09:15.171Z,66.94
2023-01-13T09:12:03.502Z,66.09
2023-01-13T09:14:32.257Z,65.93
2023-01-13T09:16:59.962Z,66.47
2023-01-13T09:19:27.582Z,65.68
2023-01-13T09:21:55.556Z,65.77
2023-01-13T09:24:23.489Z,64.46
2023-01-13T09:26:50.412Z,63.60
2023-01-13T09:29:17.939Z,64.30
2023-01-13T09:31:44.703Z,63.39
2023-01-13T09:34:34.200Z,63.18
2023-01-13T09:37:01.279Z,64.97
2023-01-13T09:39:27.915Z,65.82
2023-01-13T09:42:15.918Z,64.34
2023-01-13T09:44:56.119Z,64.46
2023-01-13T09:47:44.604Z,64.82
2023-01-13T09:50:14.165Z,64.41
2023-01-13T09:52:45.881Z,63.87
2023-01-13T09:55:22.874Z,64.71
2023-01-13T09:57:49.483Z,64.12
2023-01-13T10:00:22.381Z,63.94
2023-01-13T10:03:04.245Z,62.61
2023-01-13T10:05:41.211Z,63.24
2023-01-13T10:08:22.058Z,61.62
2023-01-13T10:10:51.494Z,61.73
2023-01-13T10:13:26.501Z,61.35
2023-01-13T10:15:53.073Z,62.08
2023-01-13T10:18:46.073Z,61.63
2023-01-13T10:21:43.864Z,61.86
2023-01-13T10:24:48.161Z,61.55
2023-01-13T10:27:27.471Z,60.84
2023-01-13T10:29:54.038Z,61.78
2023-01-13T10:32:20.690Z,61.31
2023-01-13T10:34:52.000Z,61.07
2023-01-13T10:37:24.320Z,60.37
2023-01-13T10:39:55.508Z,60.57
2023-01-13T10:42:24.594Z,60.39
2023-01-13T10:44:51.145Z,60.97
2023-01-13T10:47:20.763Z,60.72
2023-01-13T10:50:01.138Z,60.68
2023-01-13T10:52:30.069Z,60.94
2023-01-13T10:54:57.120Z,61.07
2023-01-13T10:57:26.946Z,61.43
2023-01-13T10:59:54.851Z,60.74
2023-01-13T11:02:30.711Z,60.75
2023-01-13T11:05:03.233Z,60.80
2023-01-13T11:07:36.630Z,60.22
2023-01-13T11:10:09.155Z,60.63
2023-01-13T11:12:50.904Z,61.25
2023-01-13T11:15:22.780Z,60.92
2023-01-13T11:17:53.594Z,61.04
2023-01-13T11:20:42.029Z,61.22
2023-01-13T11:23:40.107Z,61.80
2023-01-13T11:26:23.839Z,60.32
2023-01-13T11:29:00.120Z,59.82
2023-01-13T11:31:36.177Z,60.09
2023-01-13T11:34:27.151Z,60.42
2023-01-13T11:36:57.526Z,60.71
2023-01-13T11:39:33.504Z,60.90
2023-01-13T11:42:24.305Z,61.69
2023-01-13T11:45:17.578Z,61.34
2023-01-13T11:47:51.351Z,60.96
2023-01-13T11:50:51.084Z,60.97
2023-01-13T11:53:36.543Z,61.02
2023-01-13T11:56:05.919Z,61.30
2023-01-13T11:58:51.691Z,61.27
2023-01-13T12:01:30.344Z,63.55
2023-01-13T12:04:43.308Z,64.06
2023-01-13T12:07:47.399Z,62.99
2023-01-13T12:10:43.976Z,62.50
2023-01-13T12:13:48.891Z,62.45
2023-01-13T12:19:32.145Z,62.38
2023-01-13T12:22:16.295Z,61.37
2023-01-13T12:25:06.479Z,61.14
2023-01-13T12:28:13.321Z,61.56
2023-01-13T12:31:18.331Z,61.87
2023-01-13T12:34:03.130Z,61.08
2023-01-13T12:37:04.475Z,60.77
2023-01-13T12:40:10.459Z,60.82
2023-01-13T12:43:10.885Z,60.50
2023-01-13T12:45:37.654Z,59.52
2023-01-13T12:48:05.205Z,59.62
2023-01-13T12:50:31.769Z,58.84
2023-01-13T12:53:19.452Z,58.03
2023-01-13T12:55:51.806Z,58.34
2023-01-13T12:58:28.169Z,57.57
2023-01-13T13:01:28.974Z,57.88
2023-01-13T13:04:17.862Z,57.96
2023-01-13T13:07:04.920Z,57.89
2023-01-13T13:09:39.815Z,58.06
2023-01-13T13:12:49.914Z,58.54
2023-01-13T13:15:24.409Z,58.42
2023-01-13T13:18:03.159Z,58.36
2023-01-13T13:20:54.645Z,58.78
2023-01-13T13:23:32.858Z,58.88
2023-01-13T13:26:24.020Z,57.96
2023-01-13T13:29:12.209Z,58.13
2023-01-13T13:31:44.798Z,58.21
2023-01-13T13:34:40.667Z,57.96
2023-01-13T13:37:07.218Z,58.50
2023-01-13T13:39:52.992Z,57.92
2023-01-13T13:42:35.947Z,58.75
2023-01-13T13:45:31.387Z,59.08
2023-01-13T13:47:57.984Z,59.18
2023-01-13T13:50:24.694Z,59.45
2023-01-13T13:52:58.848Z,59.46
2023-01-13T13:55:27.760Z,58.76
2023-01-13T13:57:57.519Z,57.97
2023-01-13T14:00:34.541Z,58.17
2023-01-13T14:03:04.184Z,58.58
2023-01-13T14:05:35.546Z,58.25
2023-01-13T14:08:18.338Z,58.34
2023-01-13T14:10:46.303Z,58.89
2023-01-13T14:13:20.674Z,59.48
2023-01-13T14:15:50.490Z,58.13
2023-01-13T14:18:21.724Z,58.05
2023-01-13T14:20:54.307Z,57.74
2023-01-13T14:23:26.651Z,57.89
2023-01-13T14:25:53.758Z,58.78
2023-01-13T14:28:45.411Z,59.14
2023-01-13T14:31:16.180Z,59.08
2023-01-13T14:34:31.812Z,58.80
2023-01-13T14:36:54.901Z,59.46
2023-01-13T14:39:26.115Z,58.83
2023-01-13T14:41:53.487Z,59.62
2023-01-13T14:44:34.619Z,58.82
2023-01-13T14:47:05.196Z,59.07
2023-01-13T14:49:39.461Z,58.28
2023-01-13T14:52:20.019Z,58.00
2023-01-13T14:54:58.699Z,59.01
2023-01-13T14:57:25.935Z,60.23
2023-01-13T14:59:56.209Z,59.86
2023-01-13T15:02:25.766Z,61.54
2023-01-13T15:04:58.721Z,64.44
2023-01-13T15:07:28.108Z,65.20
2023-01-13T15:09:58.229Z,65.77
2023-01-13T15:12:36.300Z,64.31
2023-01-13T15:15:07.916Z,63.99
2023-01-13T15:17:35.066Z,63.60
2023-01-13T15:20:03.213Z,65.08
2023-01-13T15:22:29.940Z,65.62
2023-01-13T15:24:57.485Z,64.95
2023-01-13T15:27:26.056Z,65.28
2023-01-13T15:29:52.659Z,64.88
2023-01-13T15:32:21.189Z,64.28
2023-01-13T15:34:48.940Z,63.37
2023-01-13T15:37:17.259Z,62.92
2023-01-13T15:39:44.060Z,63.13
2023-01-13T15:42:32.580Z,63.04
2023-01-13T15:45:17.983Z,63.18
2023-01-13T15:47:45.207Z,63.43
2023-01-13T15:50:19.342Z,62.77
2023-01-13T15:52:46.068Z,62.88
2023-01-13T15:55:18.971Z,62.72
2023-01-13T15:57:49.916Z,62.28
2023-01-13T16:00:30.952Z,62.23
2023-01-13T16:03:11.456Z,61.66
2023-01-13T16:05:38.816Z,61.67
2023-01-13T16:08:05.948Z,61.51
2023-01-13T16:10:32.739Z,61.41
2023-01-13T16:12:59.350Z,61.10
2023-01-13T16:15:26.172Z,61.47
2023-01-13T16:17:57.893Z,61.90
2023-01-13T16:20:24.787Z,61.88
2023-01-13T16:22:51.452Z,61.86
2023-01-13T16:25:23.650Z,61.93
2023-01-13T16:27:51.191Z,61.73
2023-01-13T16:30:27.367Z,61.41
2023-01-13T16:32:55.198Z,61.67
2023-01-13T16:35:23.427Z,62.16
2023-01-13T16:37:50.658Z,62.10
2023-01-13T16:40:25.175Z,61.47
2023-01-13T16:42:52.428Z,62.02
2023-01-13T16:45:19.582Z,61.60
2023-01-13T16:47:46.584Z,62.20
2023-01-13T16:50:22.600Z,62.21
2023-01-13T16:52:49.920Z,61.83
2023-01-13T16:55:16.695Z,61.86
2023-01-13T16:57:43.325Z,62.15
2023-01-13T17:00:12.447Z,61.62
2023-01-13T17:02:39.748Z,61.39
2023-01-13T17:05:07.283Z,61.80
2023-01-13T17:07:33.933Z,61.92
2023-01-13T17:10:00.643Z,62.14
2023-01-13T17:12:27.327Z,61.79
2023-01-13T17:14:53.934Z,62.08
2023-01-13T17:17:26.070Z,62.21
2023-01-13T17:19:53.827Z,62.92
2023-01-13T17:22:21.887Z,62.41
2023-01-13T17:24:48.909Z,61.93
2023-01-13T17:27:17.343Z,62.56
2023-01-13T17:29:44.221Z,63.07
2023-01-13T17:32:16.569Z,63.78
2023-01-13T17:34:43.629Z,64.17
2023-01-13T17:37:13.818Z,63.15
2023-01-13T17:39:43.662Z,63.27
2023-01-13T17:42:11.607Z,63.04
2023-01-13T17:44:38.747Z,62.82
2023-01-13T17:47:05.819Z,62.94
2023-01-13T17:49:32.950Z,63.31
2023-01-13T17:51:59.611Z,63.27
2023-01-13T17:54:26.332Z,62.87
2023-01-13T17:56:52.996Z,62.82
2023-01-13T17:59:20.085Z,62.83
2023-01-13T18:01:46.786Z,62.58
2023-01-13T18:04:18.150Z,62.79
2023-01-13T18:06:45.755Z,63.99
2023-01-13T18:09:12.472Z,64.06
2023-01-13T18:11:39.646Z,64.69
2023-01-13T18:14:09.897Z,64.72
2023-01-13T18:16:49.413Z,63.86
2023-01-13T18:19:35.030Z,64.13
2023-01-13T18:22:27.439Z,64.33
2023-01-13T18:25:12.778Z,63.28
2023-01-13T18:27:41.812Z,63.55
2023-01-13T18:30:23.026Z,64.08
2023-01-13T18:32:50.505Z,63.71
2023-01-13T18:35:17.149Z,63.15
2023-01-13T18:37:44.365Z,62.61
2023-01-13T18:40:13.667Z,62.15
2023-01-13T18:42:56.239Z,62.09
2023-01-13T18:45:29.223Z,62.17
2023-01-13T18:47:58.603Z,62.29
2023-01-13T18:50:25.481Z,62.28
2023-01-13T18:52:53.411Z,62.41
2023-01-13T18:55:21.083Z,62.31
2023-01-13T18:57:48.838Z,62.05
2023-01-13T19:00:20.023Z,61.82
2023-01-13T19:05:34.616Z,62.15
2023-01-13T19:08:02.141Z,62.55
2023-01-13T19:10:32.118Z,62.91
2023-01-13T19:12:59.091Z,62.76
2023-01-13T19:15:38.755Z,62.47
2023-01-13T19:18:05.610Z,62.39
2023-01-13T19:20:32.348Z,62.47
2023-01-13T19:22:58.968Z,62.40
2023-01-13T19:25:25.620Z,62.98
2023-01-13T19:27:52.289Z,63.16
2023-01-13T19:30:19.394Z,62.85
2023-01-13T19:32:46.089Z,62.30
2023-01-13T19:35:17.512Z,61.91
2023-01-13T19:37:54.006Z,62.01
2023-01-13T19:40:20.872Z,62.27
2023-01-13T19:43:06.416Z,61.96
2023-01-13T19:45:35.405Z,62.44
2023-01-13T19:48:04.840Z,62.23
2023-01-13T19:50:36.762Z,62.34
2023-01-13T19:53:03.655Z,62.26
2023-01-13T19:55:33.113Z,62.02
2023-01-13T19:58:04.082Z,61.41
2023-01-13T20:00:30.858Z,61.89
2023-01-13T20:03:03.289Z,61.93
2023-01-13T20:05:31.115Z,62.58
2023-01-13T20:07:58.125Z,62.11
2023-01-13T20:10:25.243Z,61.91
2023-01-13T20:12:58.364Z,61.91
2023-01-13T20:15:26.281Z,61.69
2023-01-13T20:17:53.887Z,61.54
2023-01-13T20:20:30.424Z,62.46
2023-01-13T20:23:00.246Z,63.42
2023-01-13T20:25:31.503Z,62.82
2023-01-13T20:27:58.848Z,63.54
2023-01-13T20:30:28.596Z,64.66
2023-01-13T20:32:55.473Z,63.67
2023-01-13T20:35:29.646Z,62.37
2023-01-13T20:37:56.675Z,61.88
2023-01-13T20:40:41.809Z,62.35
2023-01-13T20:43:08.615Z,61.97
2023-01-13T20:45:43.945Z,61.70
2023-01-13T20:48:19.480Z,61.06
2023-01-13T20:51:10.846Z,61.82
2023-01-13T20:53:37.662Z,62.19
2023-01-13T20:56:08.768Z,62.06
2023-01-13T20:58:37.341Z,63.89
2023-01-13T21:01:04.650Z,63.70
2023-01-13T21:03:31.368Z,63.81
2023-01-13T21:05:58.419Z,63.10
2023-01-13T21:08:25.021Z,62.49
2023-01-13T21:10:51.678Z,62.60
2023-01-13T21:13:37.054Z,62.28
2023-01-13T21:16:03.914Z,63.04
2023-01-13T21:18:49.059Z,63.58
2023-01-13T21:21:16.113Z,63.91
2023-01-13T21:23:44.429Z,63.67
2023-01-13T21:26:12.250Z,63.71
2023-01-13T21:28:38.976Z,63.29
2023-01-13T21:31:08.751Z,62.53
2023-01-13T21:33:36.242Z,62.90
2023-01-13T21:36:16.016Z,62.80
2023-01-13T21:38:42.657Z,63.90
2023-01-13T21:41:09.533Z,63.31
2023-01-13T21:43:56.345Z,62.82
2023-01-13T21:46:42.388Z,62.99
2023-01-13T21:49:09.074Z,63.18
2023-01-13T21:51:35.722Z,63.03
2023-01-13T21:54:02.519Z,61.94
2023-01-13T21:56:29.128Z,61.38
2023-01-13T21:58:58.325Z,61.15
2023-01-13T22:01:25.201Z,60.98
2023-01-13T22:04:17.998Z,60.90
2023-01-13T22:06:53.115Z,60.69
2023-01-13T22:09:19.856Z,60.21
2023-01-13T22:11:46.492Z,59.96
2023-01-13T22:14:14.065Z,60.57
2023-01-13T22:16:49.050Z,60.35
2023-01-13T22:19:18.232Z,60.63
2023-01-13T22:21:44.944Z,60.70
2023-01-13T22:24:11.757Z,60.70
2023-01-13T22:26:38.611Z,60.53
2023-01-13T22:29:05.249Z,60.69
2023-01-13T22:31:32.041Z,60.29
2023-01-13T22:33:58.656Z,60.34
2023-01-13T22:36:25.323Z,61.71
2023-01-13T22:38:56.351Z,61.39
2023-01-13T22:41:23.544Z,62.46
2023-01-13T22:43:50.237Z,62.12
2023-01-13T22:46:17.469Z,61.47
2023-01-13T22:48:44.397Z,61.35
2023-01-13T22:51:16.298Z,61.22
2023-01-13T22:53:42.884Z,60.83
2023-01-13T22:56:21.502Z,60.93
2023-01-13T22:58:49.126Z,61.50
2023-01-13T23:01:17.469Z,61.10
2023-01-13T23:03:47.689Z,61.20
2023-01-13T23:06:14.916Z,61.31
2023-01-13T23:08:41.924Z,61.46
2023-01-13T23:11:10.738Z,61.53
2023-01-13T23:13:39.383Z,61.73
2023-01-13T23:16:08.554Z,61.87
2023-01-13T23:18:35.185Z,62.68
2023-01-13T23:21:10.663Z,63.31
2023-01-13T23:23:37.945Z,63.62
2023-01-13T23:26:06.047Z,64.45
2023-01-13T23:28:33.606Z,63.68
2023-01-13T23:31:00.546Z,63.38
2023-01-13T23:33:27.269Z,63.01
2023-01-13T23:36:02.135Z,62.78
2023-01-13T23:38:29.552Z,62.79
2023-01-13T23:40:56.858Z,62.63
2023-01-13T23:43:24.002Z,62.42
2023-01-13T23:45:50.633Z,62.29
2023-01-13T23:48:18.674Z,62.58
2023-01-13T23:50:56.021Z,63.03
2023-01-13T23:53:22.621Z,62.77
2023-01-13T23:55:49.205Z,63.05
2023-01-13T23:58:15.905Z,63.18
